Station History

Weather Underground - logo

Station Historical Data
Daily Summary for January 2, 2018 Units:  Both    English   Metric
« Previous Day
Next Day »
Daily Weekly Monthly Yearly Custom
  High: Low: Average:
Temperature: 62.6 °F /  17 °C 38.0 °F /  3.3 °C 48.8 °F /  9.3 °C
Dew Point: 47.5 °F /  8.6 °C 35.6 °F /  2 °C 42.6 °F /  5.9 °C
Humidity: 94 % 55 % 81 %
Wind Speed: 5.8 mph /  9.3 km/h - 0.3 mph /  0.5 km/h
Wind Gust: 5.8 mph /  9.3 km/h - -
Wind:- - WSW
Pressure: 30.25 in /  1024.3 hPa 30.13 in /  1020.2 hPa -
Precipitation: 0.00 in /  0 mm    
Historical Graphs
 
 
Tabular Data for January 2, 2018
Time Temperature Dew Point Pressure Wind Wind Speed Wind Gust Humidity Rainfall Rate (Hourly)
00:03 42.9 °F /  6.1 °C 39.6 °F /  4.2 °C 30.22 in /  1023.2 hPa Calm     88 % 0.00 in /  0 mm
00:04 42.9 °F /  6.1 °C 39.6 °F /  4.2 °C 30.22 in /  1023.2 hPa Calm     88 % 0.00 in /  0 mm
00:09 42.8 °F /  6 °C 39.5 °F /  4.2 °C 30.23 in /  1023.6 hPa Calm     88 % 0.00 in /  0 mm
00:10 42.8 °F /  6 °C 39.5 °F /  4.2 °C 30.23 in /  1023.6 hPa Calm     88 % 0.00 in /  0 mm
00:15 42.4 °F /  5.8 °C 39.1 °F /  3.9 °C 30.23 in /  1023.6 hPa Calm     88 % 0.00 in /  0 mm
00:19 42.0 °F /  5.6 °C 38.7 °F /  3.7 °C 30.23 in /  1023.6 hPa Calm     88 % 0.00 in /  0 mm
00:24 41.6 °F /  5.3 °C 38.3 °F /  3.5 °C 30.23 in /  1023.6 hPa Calm     88 % 0.00 in /  0 mm
00:29 41.2 °F /  5.1 °C 37.9 °F /  3.3 °C 30.23 in /  1023.6 hPa Calm     88 % 0.00 in /  0 mm
00:34 41.1 °F /  5.1 °C 38.1 °F /  3.4 °C 30.24 in /  1023.9 hPa Calm     89 % 0.00 in /  0 mm
00:36 41.0 °F /  5 °C 38.0 °F /  3.3 °C 30.24 in /  1023.9 hPa Calm     89 % 0.00 in /  0 mm
00:42 40.9 °F /  4.9 °C 38.2 °F /  3.4 °C 30.23 in /  1023.6 hPa Calm     90 % 0.00 in /  0 mm
00:43 40.9 °F /  4.9 °C 38.2 °F /  3.4 °C 30.23 in /  1023.6 hPa Calm     90 % 0.00 in /  0 mm
00:48 40.8 °F /  4.9 °C 38.1 °F /  3.4 °C 30.24 in /  1023.9 hPa Calm     90 % 0.00 in /  0 mm
00:49 40.8 °F /  4.9 °C 38.1 °F /  3.4 °C 30.24 in /  1023.9 hPa Calm     90 % 0.00 in /  0 mm
00:54 40.7 °F /  4.8 °C 38.0 °F /  3.3 °C 30.23 in /  1023.6 hPa Calm     90 % 0.00 in /  0 mm
00:57 40.7 °F /  4.8 °C 38.0 °F /  3.3 °C 30.23 in /  1023.6 hPa Calm     90 % 0.00 in /  0 mm
01:02 40.8 °F /  4.9 °C 38.4 °F /  3.6 °C 30.23 in /  1023.6 hPa Calm     91 % 0.00 in /  0 mm
01:03 40.8 °F /  4.9 °C 38.4 °F /  3.6 °C 30.23 in /  1023.6 hPa Calm     91 % 0.00 in /  0 mm
01:04 40.7 °F /  4.8 °C 38.3 °F /  3.5 °C 30.23 in /  1023.6 hPa Calm     91 % 0.00 in /  0 mm
01:09 40.6 °F /  4.8 °C 38.2 °F /  3.4 °C 30.24 in /  1023.9 hPa Calm     91 % 0.00 in /  0 mm
01:14 40.4 °F /  4.7 °C 38.0 °F /  3.3 °C 30.24 in /  1023.9 hPa Calm     91 % 0.00 in /  0 mm
01:17 40.4 °F /  4.7 °C 38.0 °F /  3.3 °C 30.24 in /  1023.9 hPa Calm     91 % 0.00 in /  0 mm
01:21 40.4 °F /  4.7 °C 38.0 °F /  3.3 °C 30.24 in /  1023.9 hPa Calm     91 % 0.00 in /  0 mm
01:26 40.3 °F /  4.6 °C 37.9 °F /  3.3 °C 30.24 in /  1023.9 hPa Calm     91 % 0.00 in /  0 mm
01:27 40.3 °F /  4.6 °C 38.2 °F /  3.4 °C 30.23 in /  1023.6 hPa Calm     92 % 0.00 in /  0 mm
01:32 40.6 °F /  4.8 °C 38.5 °F /  3.6 °C 30.24 in /  1023.9 hPa Calm     92 % 0.00 in /  0 mm
01:37 40.6 °F /  4.8 °C 38.5 °F /  3.6 °C 30.24 in /  1023.9 hPa Calm     92 % 0.00 in /  0 mm
01:40 40.5 °F /  4.7 °C 38.4 °F /  3.6 °C 30.24 in /  1023.9 hPa Calm     92 % 0.00 in /  0 mm
01:42 40.5 °F /  4.7 °C 38.4 °F /  3.6 °C 30.24 in /  1023.9 hPa Calm     92 % 0.00 in /  0 mm
01:46 40.4 °F /  4.7 °C 38.3 °F /  3.5 °C 30.24 in /  1023.9 hPa Calm     92 % 0.00 in /  0 mm
01:51 40.2 °F /  4.6 °C 37.8 °F /  3.2 °C 30.24 in /  1023.9 hPa Calm     91 % 0.00 in /  0 mm
01:54 40.0 °F /  4.4 °C 37.6 °F /  3.1 °C 30.24 in /  1023.9 hPa Calm     91 % 0.00 in /  0 mm
01:55 40.0 °F /  4.4 °C 37.6 °F /  3.1 °C 30.24 in /  1023.9 hPa Calm     91 % 0.00 in /  0 mm
02:00 39.9 °F /  4.4 °C 37.5 °F /  3.1 °C 30.24 in /  1023.9 hPa Calm     91 % 0.00 in /  0 mm
02:01 39.9 °F /  4.4 °C 37.5 °F /  3.1 °C 30.24 in /  1023.9 hPa Calm     91 % 0.00 in /  0 mm
02:06 39.9 °F /  4.4 °C 37.5 °F /  3.1 °C 30.24 in /  1023.9 hPa WNW 5.8 mph /  9.3 km/h 5.8 mph /  9.3 km/h 91 % 0.00 in /  0 mm
02:07 40.0 °F /  4.4 °C 37.6 °F /  3.1 °C 30.24 in /  1023.9 hPa Calm     91 % 0.00 in /  0 mm
02:13 40.3 °F /  4.6 °C 38.2 °F /  3.4 °C 30.23 in /  1023.6 hPa Calm     92 % 0.00 in /  0 mm
02:15 40.4 °F /  4.7 °C 38.3 °F /  3.5 °C 30.23 in /  1023.6 hPa Calm     92 % 0.00 in /  0 mm
02:19 40.4 °F /  4.7 °C 38.3 °F /  3.5 °C 30.23 in /  1023.6 hPa Calm     92 % 0.00 in /  0 mm
02:24 40.8 °F /  4.9 °C 38.7 °F /  3.7 °C 30.23 in /  1023.6 hPa Calm     92 % 0.00 in /  0 mm
02:28 41.0 °F /  5 °C 38.9 °F /  3.8 °C 30.23 in /  1023.6 hPa Calm     92 % 0.00 in /  0 mm
02:37 41.1 °F /  5.1 °C 38.7 °F /  3.7 °C 30.23 in /  1023.6 hPa Calm     91 % 0.00 in /  0 mm
02:38 41.1 °F /  5.1 °C 38.7 °F /  3.7 °C 30.22 in /  1023.2 hPa Calm     91 % 0.00 in /  0 mm
02:46 41.3 °F /  5.2 °C 39.2 °F /  4 °C 30.22 in /  1023.2 hPa Calm     92 % 0.00 in /  0 mm
02:51 41.6 °F /  5.3 °C 39.2 °F /  4 °C 30.22 in /  1023.2 hPa Calm     91 % 0.00 in /  0 mm
02:53 41.5 °F /  5.3 °C 39.1 °F /  3.9 °C 30.22 in /  1023.2 hPa Calm     91 % 0.00 in /  0 mm
02:57 41.4 °F /  5.2 °C 38.7 °F /  3.7 °C 30.22 in /  1023.2 hPa Calm     90 % 0.00 in /  0 mm
03:02 41.1 °F /  5.1 °C 38.4 °F /  3.6 °C 30.22 in /  1023.2 hPa Calm     90 % 0.00 in /  0 mm
03:03 41.0 °F /  5 °C 38.3 °F /  3.5 °C 30.22 in /  1023.2 hPa Calm     90 % 0.00 in /  0 mm
03:07 40.7 °F /  4.8 °C 38.0 °F /  3.3 °C 30.22 in /  1023.2 hPa Calm     90 % 0.00 in /  0 mm
03:16 39.9 °F /  4.4 °C 37.2 °F /  2.9 °C 30.21 in /  1022.9 hPa Calm     90 % 0.00 in /  0 mm
03:18 39.8 °F /  4.3 °C 37.4 °F /  3 °C 30.21 in /  1022.9 hPa Calm     91 % 0.00 in /  0 mm
03:21 39.7 °F /  4.3 °C 37.3 °F /  2.9 °C 30.21 in /  1022.9 hPa Calm     91 % 0.00 in /  0 mm
03:24 39.7 °F /  4.3 °C 37.3 °F /  2.9 °C 30.21 in /  1022.9 hPa Calm     91 % 0.00 in /  0 mm
03:27 39.6 °F /  4.2 °C 37.2 °F /  2.9 °C 30.21 in /  1022.9 hPa Calm     91 % 0.00 in /  0 mm
03:32 39.5 °F /  4.2 °C 37.1 °F /  2.8 °C 30.21 in /  1022.9 hPa Calm     91 % 0.00 in /  0 mm
03:38 39.4 °F /  4.1 °C 37.0 °F /  2.8 °C 30.20 in /  1022.6 hPa Calm     91 % 0.00 in /  0 mm
03:43 39.5 °F /  4.2 °C 37.4 °F /  3 °C 30.20 in /  1022.6 hPa Calm     92 % 0.00 in /  0 mm
03:48 39.4 °F /  4.1 °C 37.3 °F /  2.9 °C 30.20 in /  1022.6 hPa Calm     92 % 0.00 in /  0 mm
03:50 39.4 °F /  4.1 °C 37.3 °F /  2.9 °C 30.20 in /  1022.6 hPa Calm     92 % 0.00 in /  0 mm
03:55 39.0 °F /  3.9 °C 36.6 °F /  2.6 °C 30.21 in /  1022.9 hPa Calm     91 % 0.00 in /  0 mm
03:56 38.9 °F /  3.8 °C 36.2 °F /  2.3 °C 30.21 in /  1022.9 hPa Calm     90 % 0.00 in /  0 mm
03:57 38.8 °F /  3.8 °C 36.1 °F /  2.3 °C 30.21 in /  1022.9 hPa WSW 1.0 mph /  1.6 km/h 1.0 mph /  1.6 km/h 90 % 0.00 in /  0 mm
04:02 38.4 °F /  3.6 °C 36.0 °F /  2.2 °C 30.21 in /  1022.9 hPa Calm     91 % 0.00 in /  0 mm
04:04 38.3 °F /  3.5 °C 35.9 °F /  2.2 °C 30.21 in /  1022.9 hPa WSW 1.2 mph /  1.9 km/h   91 % 0.00 in /  0 mm
04:08 38.1 °F /  3.4 °C 35.7 °F /  2.1 °C 30.21 in /  1022.9 hPa Calm     91 % 0.00 in /  0 mm
04:09 38.1 °F /  3.4 °C 35.7 °F /  2.1 °C 30.21 in /  1022.9 hPa Calm     91 % 0.00 in /  0 mm
04:11 38.0 °F /  3.3 °C 35.6 °F /  2 °C 30.21 in /  1022.9 hPa Calm     91 % 0.00 in /  0 mm
04:16 38.0 °F /  3.3 °C 35.9 °F /  2.2 °C 30.21 in /  1022.9 hPa Calm     92 % 0.00 in /  0 mm
04:20 38.0 °F /  3.3 °C 35.9 °F /  2.2 °C 30.21 in /  1022.9 hPa Calm     92 % 0.00 in /  0 mm
04:25 38.0 °F /  3.3 °C 35.9 °F /  2.2 °C 30.21 in /  1022.9 hPa Calm     92 % 0.00 in /  0 mm
04:29 38.0 °F /  3.3 °C 35.9 °F /  2.2 °C 30.22 in /  1023.2 hPa Calm     92 % 0.00 in /  0 mm
04:36 38.2 °F /  3.4 °C 36.4 °F /  2.4 °C 30.22 in /  1023.2 hPa Calm     93 % 0.00 in /  0 mm
04:39 38.3 °F /  3.5 °C 36.5 °F /  2.5 °C 30.22 in /  1023.2 hPa Calm     93 % 0.00 in /  0 mm
04:41 38.5 °F /  3.6 °C 36.7 °F /  2.6 °C 30.22 in /  1023.2 hPa Calm     93 % 0.00 in /  0 mm
04:44 38.7 °F /  3.7 °C 36.9 °F /  2.7 °C 30.22 in /  1023.2 hPa Calm     93 % 0.00 in /  0 mm
04:47 38.7 °F /  3.7 °C 36.9 °F /  2.7 °C 30.22 in /  1023.2 hPa Calm     93 % 0.00 in /  0 mm
04:52 38.9 °F /  3.8 °C 37.0 °F /  2.8 °C 30.22 in /  1023.2 hPa Calm     93 % 0.00 in /  0 mm
04:53 38.9 °F /  3.8 °C 37.0 °F /  2.8 °C 30.22 in /  1023.2 hPa Calm     93 % 0.00 in /  0 mm
04:56 39.1 °F /  3.9 °C 37.5 °F /  3.1 °C 30.22 in /  1023.2 hPa Calm     94 % 0.00 in /  0 mm
04:58 39.4 °F /  4.1 °C 37.8 °F /  3.2 °C 30.22 in /  1023.2 hPa Calm     94 % 0.00 in /  0 mm
05:04 39.8 °F /  4.3 °C 38.2 °F /  3.4 °C 30.22 in /  1023.2 hPa Calm     94 % 0.00 in /  0 mm
05:05 39.9 °F /  4.4 °C 38.3 °F /  3.5 °C 30.22 in /  1023.2 hPa Calm     94 % 0.00 in /  0 mm
05:09 40.1 °F /  4.5 °C 38.5 °F /  3.6 °C 30.23 in /  1023.6 hPa Calm     94 % 0.00 in /  0 mm
05:13 40.1 °F /  4.5 °C 38.2 °F /  3.4 °C 30.23 in /  1023.6 hPa Calm     93 % 0.00 in /  0 mm
05:15 40.2 °F /  4.6 °C 38.3 °F /  3.5 °C 30.23 in /  1023.6 hPa Calm     93 % 0.00 in /  0 mm
05:21 40.3 °F /  4.6 °C 38.4 °F /  3.6 °C 30.23 in /  1023.6 hPa Calm     93 % 0.00 in /  0 mm
05:23 40.3 °F /  4.6 °C 38.4 °F /  3.6 °C 30.23 in /  1023.6 hPa Calm     93 % 0.00 in /  0 mm
05:26 40.4 °F /  4.7 °C 38.5 °F /  3.6 °C 30.23 in /  1023.6 hPa Calm     93 % 0.00 in /  0 mm
05:29 40.4 °F /  4.7 °C 38.5 °F /  3.6 °C 30.23 in /  1023.6 hPa Calm     93 % 0.00 in /  0 mm
05:32 40.6 °F /  4.8 °C 38.7 °F /  3.7 °C 30.23 in /  1023.6 hPa Calm     93 % 0.00 in /  0 mm
05:34 40.7 °F /  4.8 °C 38.8 °F /  3.8 °C 30.23 in /  1023.6 hPa Calm     93 % 0.00 in /  0 mm
05:39 41.0 °F /  5 °C 39.1 °F /  3.9 °C 30.23 in /  1023.6 hPa Calm     93 % 0.00 in /  0 mm
05:44 41.2 °F /  5.1 °C 39.1 °F /  3.9 °C 30.23 in /  1023.6 hPa Calm     92 % 0.00 in /  0 mm
05:47 41.2 °F /  5.1 °C 39.1 °F /  3.9 °C 30.23 in /  1023.6 hPa Calm     92 % 0.00 in /  0 mm
05:52 41.0 °F /  5 °C 38.9 °F /  3.8 °C 30.23 in /  1023.6 hPa Calm     92 % 0.00 in /  0 mm
05:53 41.0 °F /  5 °C 38.9 °F /  3.8 °C 30.23 in /  1023.6 hPa Calm     92 % 0.00 in /  0 mm
05:58 41.0 °F /  5 °C 38.9 °F /  3.8 °C 30.24 in /  1023.9 hPa Calm     92 % 0.00 in /  0 mm
06:03 40.9 °F /  4.9 °C 38.8 °F /  3.8 °C 30.23 in /  1023.6 hPa Calm     92 % 0.00 in /  0 mm
06:08 40.9 °F /  4.9 °C 38.8 °F /  3.8 °C 30.23 in /  1023.6 hPa Calm     92 % 0.00 in /  0 mm
06:14 40.9 °F /  4.9 °C 38.8 °F /  3.8 °C 30.24 in /  1023.9 hPa Calm     92 % 0.00 in /  0 mm
06:19 40.9 °F /  4.9 °C 38.8 °F /  3.8 °C 30.23 in /  1023.6 hPa Calm     92 % 0.00 in /  0 mm
06:20 40.8 °F /  4.9 °C 38.7 °F /  3.7 °C 30.24 in /  1023.9 hPa Calm     92 % 0.00 in /  0 mm
06:25 40.7 °F /  4.8 °C 38.6 °F /  3.7 °C 30.24 in /  1023.9 hPa Calm     92 % 0.00 in /  0 mm
06:27 40.6 °F /  4.8 °C 38.2 °F /  3.4 °C 30.23 in /  1023.6 hPa Calm     91 % 0.00 in /  0 mm
06:34 40.4 °F /  4.7 °C 38.0 °F /  3.3 °C 30.24 in /  1023.9 hPa Calm     91 % 0.00 in /  0 mm
06:36 40.3 °F /  4.6 °C 37.9 °F /  3.3 °C 30.24 in /  1023.9 hPa Calm     91 % 0.00 in /  0 mm
06:39 40.2 °F /  4.6 °C 38.1 °F /  3.4 °C 30.24 in /  1023.9 hPa Calm     92 % 0.00 in /  0 mm
06:42 40.1 °F /  4.5 °C 38.0 °F /  3.3 °C 30.24 in /  1023.9 hPa Calm     92 % 0.00 in /  0 mm
06:47 40.0 °F /  4.4 °C 37.9 °F /  3.3 °C 30.24 in /  1023.9 hPa Calm     92 % 0.00 in /  0 mm
06:49 39.9 °F /  4.4 °C 37.8 °F /  3.2 °C 30.24 in /  1023.9 hPa Calm     92 % 0.00 in /  0 mm
06:54 39.9 °F /  4.4 °C 37.8 °F /  3.2 °C 30.24 in /  1023.9 hPa Calm     92 % 0.00 in /  0 mm
06:55 39.9 °F /  4.4 °C 37.8 °F /  3.2 °C 30.24 in /  1023.9 hPa Calm     92 % 0.00 in /  0 mm
06:58 40.2 °F /  4.6 °C 38.3 °F /  3.5 °C 30.23 in /  1023.6 hPa Calm     93 % 0.00 in /  0 mm
07:03 40.3 °F /  4.6 °C 38.4 °F /  3.6 °C 30.24 in /  1023.9 hPa Calm     93 % 0.00 in /  0 mm
07:07 40.3 °F /  4.6 °C 38.2 °F /  3.4 °C 30.23 in /  1023.6 hPa Calm     92 % 0.00 in /  0 mm
07:16 40.1 °F /  4.5 °C 37.7 °F /  3.2 °C 30.23 in /  1023.6 hPa Calm     91 % 0.00 in /  0 mm
07:20 39.9 °F /  4.4 °C 37.5 °F /  3.1 °C 30.23 in /  1023.6 hPa Calm     91 % 0.00 in /  0 mm
07:25 40.1 °F /  4.5 °C 38.2 °F /  3.4 °C 30.23 in /  1023.6 hPa Calm     93 % 0.00 in /  0 mm
07:28 40.2 °F /  4.6 °C 38.3 °F /  3.5 °C 30.23 in /  1023.6 hPa Calm     93 % 0.00 in /  0 mm
07:31 40.3 °F /  4.6 °C 38.4 °F /  3.6 °C 30.23 in /  1023.6 hPa Calm     93 % 0.00 in /  0 mm
07:33 40.3 °F /  4.6 °C 38.4 °F /  3.6 °C 30.23 in /  1023.6 hPa Calm     93 % 0.00 in /  0 mm
07:38 40.3 °F /  4.6 °C 38.2 °F /  3.4 °C 30.23 in /  1023.6 hPa Calm     92 % 0.00 in /  0 mm
07:39 40.3 °F /  4.6 °C 38.2 °F /  3.4 °C 30.23 in /  1023.6 hPa Calm     92 % 0.00 in /  0 mm
07:40 40.4 °F /  4.7 °C 38.3 °F /  3.5 °C 30.23 in /  1023.6 hPa Calm     92 % 0.00 in /  0 mm
07:44 40.4 °F /  4.7 °C 38.3 °F /  3.5 °C 30.23 in /  1023.6 hPa Calm     92 % 0.00 in /  0 mm
07:49 40.4 °F /  4.7 °C 38.3 °F /  3.5 °C 30.23 in /  1023.6 hPa Calm     92 % 0.00 in /  0 mm
07:50 40.4 °F /  4.7 °C 38.3 °F /  3.5 °C 30.23 in /  1023.6 hPa Calm     92 % 0.00 in /  0 mm
07:55 40.4 °F /  4.7 °C 38.3 °F /  3.5 °C 30.23 in /  1023.6 hPa Calm     92 % 0.00 in /  0 mm
07:56 40.5 °F /  4.7 °C 38.4 °F /  3.6 °C 30.23 in /  1023.6 hPa Calm     92 % 0.00 in /  0 mm
08:01 40.7 °F /  4.8 °C 38.6 °F /  3.7 °C 30.24 in /  1023.9 hPa Calm     92 % 0.00 in /  0 mm
08:06 41.1 °F /  5.1 °C 39.0 °F /  3.9 °C 30.24 in /  1023.9 hPa Calm     92 % 0.00 in /  0 mm
08:12 41.3 °F /  5.2 °C 39.2 °F /  4 °C 30.24 in /  1023.9 hPa Calm     92 % 0.00 in /  0 mm
08:13 41.3 °F /  5.2 °C 39.2 °F /  4 °C 30.24 in /  1023.9 hPa Calm     92 % 0.00 in /  0 mm
08:18 41.6 °F /  5.3 °C 39.4 °F /  4.1 °C 30.24 in /  1023.9 hPa Calm     92 % 0.00 in /  0 mm
08:19 41.7 °F /  5.4 °C 39.5 °F /  4.2 °C 30.24 in /  1023.9 hPa Calm     92 % 0.00 in /  0 mm
08:24 41.9 °F /  5.5 °C 39.7 °F /  4.3 °C 30.25 in /  1024.3 hPa Calm     92 % 0.00 in /  0 mm
08:29 42.2 °F /  5.7 °C 40.0 °F /  4.4 °C 30.25 in /  1024.3 hPa Calm     92 % 0.00 in /  0 mm
08:34 42.4 °F /  5.8 °C 40.2 °F /  4.6 °C 30.24 in /  1023.9 hPa Calm     92 % 0.00 in /  0 mm
08:39 42.7 °F /  5.9 °C 40.5 °F /  4.7 °C 30.25 in /  1024.3 hPa Calm     92 % 0.00 in /  0 mm
08:42 42.9 °F /  6.1 °C 40.7 °F /  4.8 °C 30.25 in /  1024.3 hPa Calm     92 % 0.00 in /  0 mm
08:47 43.2 °F /  6.2 °C 41.0 °F /  5 °C 30.25 in /  1024.3 hPa Calm     92 % 0.00 in /  0 mm
08:48 43.3 °F /  6.3 °C 41.1 °F /  5.1 °C 30.25 in /  1024.3 hPa Calm     92 % 0.00 in /  0 mm
08:49 43.4 °F /  6.3 °C 41.2 °F /  5.1 °C 30.25 in /  1024.3 hPa Calm     92 % 0.00 in /  0 mm
08:54 43.7 °F /  6.5 °C 41.8 °F /  5.4 °C 30.25 in /  1024.3 hPa WSW 1.2 mph /  1.9 km/h 1.2 mph /  1.9 km/h 93 % 0.00 in /  0 mm
08:57 43.8 °F /  6.6 °C 41.6 °F /  5.3 °C 30.25 in /  1024.3 hPa SW 1.2 mph /  1.9 km/h   92 % 0.00 in /  0 mm
09:02 44.2 °F /  6.8 °C 42.0 °F /  5.6 °C 30.25 in /  1024.3 hPa Calm     92 % 0.00 in /  0 mm
09:03 44.3 °F /  6.8 °C 42.1 °F /  5.6 °C 30.25 in /  1024.3 hPa SE 1.2 mph /  1.9 km/h 1.2 mph /  1.9 km/h 92 % 0.00 in /  0 mm
09:06 44.6 °F /  7 °C 42.4 °F /  5.8 °C 30.25 in /  1024.3 hPa SE 1.2 mph /  1.9 km/h   92 % 0.00 in /  0 mm
09:11 45.2 °F /  7.3 °C 43.0 °F /  6.1 °C 30.25 in /  1024.3 hPa Calm     92 % 0.00 in /  0 mm
09:13 45.4 °F /  7.4 °C 43.2 °F /  6.2 °C 30.25 in /  1024.3 hPa Calm     92 % 0.00 in /  0 mm
09:18 46.1 °F /  7.8 °C 43.6 °F /  6.4 °C 30.25 in /  1024.3 hPa Calm     91 % 0.00 in /  0 mm
09:23 46.8 °F /  8.2 °C 44.0 °F /  6.7 °C 30.25 in /  1024.3 hPa Calm     90 % 0.00 in /  0 mm
09:24 46.9 °F /  8.3 °C 44.1 °F /  6.7 °C 30.25 in /  1024.3 hPa Calm     90 % 0.00 in /  0 mm
09:26 47.2 °F /  8.4 °C 44.4 °F /  6.9 °C 30.25 in /  1024.3 hPa Calm     90 % 0.00 in /  0 mm
09:31 47.9 °F /  8.8 °C 44.5 °F /  6.9 °C 30.25 in /  1024.3 hPa SE 1.0 mph /  1.6 km/h 1.0 mph /  1.6 km/h 88 % 0.00 in /  0 mm
09:33 48.1 °F /  8.9 °C 44.7 °F /  7.1 °C 30.25 in /  1024.3 hPa SE 1.2 mph /  1.9 km/h   88 % 0.00 in /  0 mm
09:35 48.3 °F /  9.1 °C 44.9 °F /  7.2 °C 30.25 in /  1024.3 hPa Calm     88 % 0.00 in /  0 mm
09:40 48.8 °F /  9.3 °C 44.8 °F /  7.1 °C 30.25 in /  1024.3 hPa Calm     86 % 0.00 in /  0 mm
09:42 48.9 °F /  9.4 °C 44.9 °F /  7.2 °C 30.25 in /  1024.3 hPa ESE 1.2 mph /  1.9 km/h 1.2 mph /  1.9 km/h 86 % 0.00 in /  0 mm
09:46 49.3 °F /  9.6 °C 44.7 °F /  7.1 °C 30.25 in /  1024.3 hPa SE 1.2 mph /  1.9 km/h 1.2 mph /  1.9 km/h 84 % 0.00 in /  0 mm
09:47 49.3 °F /  9.6 °C 44.7 °F /  7.1 °C 30.25 in /  1024.3 hPa SE 2.3 mph /  3.7 km/h 2.3 mph /  3.7 km/h 84 % 0.00 in /  0 mm
09:51 49.7 °F /  9.8 °C 44.7 °F /  7.1 °C 30.25 in /  1024.3 hPa Calm     83 % 0.00 in /  0 mm
09:56 50.1 °F /  10.1 °C 45.1 °F /  7.3 °C 30.25 in /  1024.3 hPa SE 1.2 mph /  1.9 km/h   83 % 0.00 in /  0 mm
09:57 50.2 °F /  10.1 °C 45.2 °F /  7.3 °C 30.25 in /  1024.3 hPa Calm     83 % 0.00 in /  0 mm
10:02 50.6 °F /  10.3 °C 45.0 °F /  7.2 °C 30.25 in /  1024.3 hPa SE 1.2 mph /  1.9 km/h 1.2 mph /  1.9 km/h 81 % 0.00 in /  0 mm
10:07 51.0 °F /  10.6 °C 45.0 °F /  7.2 °C 30.25 in /  1024.3 hPa SE 1.2 mph /  1.9 km/h   80 % 0.00 in /  0 mm
10:08 51.0 °F /  10.6 °C 45.0 °F /  7.2 °C 30.25 in /  1024.3 hPa Calm     80 % 0.00 in /  0 mm
10:13 51.3 °F /  10.7 °C 45.3 °F /  7.4 °C 30.25 in /  1024.3 hPa Calm     80 % 0.00 in /  0 mm
10:14 51.5 °F /  10.8 °C 45.5 °F /  7.5 °C 30.25 in /  1024.3 hPa SE 1.0 mph /  1.6 km/h   80 % 0.00 in /  0 mm
10:18 51.7 °F /  10.9 °C 45.7 °F /  7.6 °C 30.24 in /  1023.9 hPa SE 1.2 mph /  1.9 km/h   80 % 0.00 in /  0 mm
10:21 51.9 °F /  11.1 °C 45.6 °F /  7.6 °C 30.24 in /  1023.9 hPa SE 1.2 mph /  1.9 km/h   79 % 0.00 in /  0 mm
10:29 52.4 °F /  11.3 °C 45.7 °F /  7.6 °C 30.24 in /  1023.9 hPa SE 1.2 mph /  1.9 km/h 1.2 mph /  1.9 km/h 78 % 0.00 in /  0 mm
10:34 52.8 °F /  11.6 °C 46.1 °F /  7.8 °C 30.24 in /  1023.9 hPa Calm     78 % 0.00 in /  0 mm
10:36 52.9 °F /  11.6 °C 46.2 °F /  7.9 °C 30.24 in /  1023.9 hPa Calm     78 % 0.00 in /  0 mm
10:41 53.4 °F /  11.9 °C 46.4 °F /  8 °C 30.24 in /  1023.9 hPa Calm     77 % 0.00 in /  0 mm
10:42 53.5 °F /  11.9 °C 46.5 °F /  8.1 °C 30.23 in /  1023.6 hPa Calm     77 % 0.00 in /  0 mm
10:44 53.7 °F /  12.1 °C 46.7 °F /  8.2 °C 30.23 in /  1023.6 hPa Calm     77 % 0.00 in /  0 mm
10:49 54.2 °F /  12.3 °C 46.1 °F /  7.8 °C 30.23 in /  1023.6 hPa Calm     74 % 0.00 in /  0 mm
10:50 54.2 °F /  12.3 °C 46.1 °F /  7.8 °C 30.23 in /  1023.6 hPa Calm     74 % 0.00 in /  0 mm
10:51 54.3 °F /  12.4 °C 46.2 °F /  7.9 °C 30.23 in /  1023.6 hPa Calm     74 % 0.00 in /  0 mm
10:55 54.7 °F /  12.6 °C 46.2 °F /  7.9 °C 30.23 in /  1023.6 hPa Calm     73 % 0.00 in /  0 mm
11:01 55.3 °F /  12.9 °C 46.1 °F /  7.8 °C 30.22 in /  1023.2 hPa Calm     71 % 0.00 in /  0 mm
11:05 55.8 °F /  13.2 °C 46.2 °F /  7.9 °C 30.22 in /  1023.2 hPa Calm     70 % 0.00 in /  0 mm
11:06 55.9 °F /  13.3 °C 46.3 °F /  7.9 °C 30.22 in /  1023.2 hPa Calm     70 % 0.00 in /  0 mm
11:11 56.4 °F /  13.6 °C 46.0 °F /  7.8 °C 30.22 in /  1023.2 hPa Calm     68 % 0.00 in /  0 mm
11:12 56.5 °F /  13.6 °C 45.7 °F /  7.6 °C 30.22 in /  1023.2 hPa Calm     67 % 0.00 in /  0 mm
11:17 56.9 °F /  13.8 °C 45.7 °F /  7.6 °C 30.22 in /  1023.2 hPa Calm     66 % 0.00 in /  0 mm
11:18 57.0 °F /  13.9 °C 46.1 °F /  7.8 °C 30.22 in /  1023.2 hPa Calm     67 % 0.00 in /  0 mm
11:23 57.4 °F /  14.1 °C 46.1 °F /  7.8 °C 30.22 in /  1023.2 hPa Calm     66 % 0.00 in /  0 mm
11:27 57.6 °F /  14.2 °C 45.9 °F /  7.7 °C 30.21 in /  1022.9 hPa Calm     65 % 0.00 in /  0 mm
11:32 57.6 °F /  14.2 °C 46.3 °F /  7.9 °C 30.21 in /  1022.9 hPa Calm     66 % 0.00 in /  0 mm
11:36 57.7 °F /  14.3 °C 46.0 °F /  7.8 °C 30.20 in /  1022.6 hPa Calm     65 % 0.00 in /  0 mm
11:42 58.0 °F /  14.4 °C 45.9 °F /  7.7 °C 30.20 in /  1022.6 hPa Calm     64 % 0.00 in /  0 mm
11:43 58.1 °F /  14.5 °C 46.0 °F /  7.8 °C 30.20 in /  1022.6 hPa Calm     64 % 0.00 in /  0 mm
11:47 58.4 °F /  14.7 °C 45.8 °F /  7.7 °C 30.20 in /  1022.6 hPa Calm     63 % 0.00 in /  0 mm
11:53 58.4 °F /  14.7 °C 45.0 °F /  7.2 °C 30.19 in /  1022.2 hPa Calm     61 % 0.00 in /  0 mm
11:55 58.5 °F /  14.7 °C 45.9 °F /  7.7 °C 30.19 in /  1022.2 hPa Calm     63 % 0.00 in /  0 mm
11:59 58.6 °F /  14.8 °C 45.6 °F /  7.6 °C 30.19 in /  1022.2 hPa Calm     62 % 0.00 in /  0 mm
12:04 58.7 °F /  14.8 °C 45.7 °F /  7.6 °C 30.19 in /  1022.2 hPa Calm     62 % 0.00 in /  0 mm
12:06 58.7 °F /  14.8 °C 45.7 °F /  7.6 °C 30.19 in /  1022.2 hPa WNW 1.2 mph /  1.9 km/h 1.2 mph /  1.9 km/h 62 % 0.00 in /  0 mm
12:11 58.8 °F /  14.9 °C 45.4 °F /  7.4 °C 30.19 in /  1022.2 hPa WNW 1.2 mph /  1.9 km/h   61 % 0.00 in /  0 mm
12:15 58.9 °F /  14.9 °C 45.9 °F /  7.7 °C 30.19 in /  1022.2 hPa Calm     62 % 0.00 in /  0 mm
12:21 59.1 °F /  15.1 °C 46.5 °F /  8.1 °C 30.18 in /  1021.9 hPa Calm     63 % 0.00 in /  0 mm
12:30 59.1 °F /  15.1 °C 46.1 °F /  7.8 °C 30.17 in /  1021.6 hPa Calm     62 % 0.00 in /  0 mm
12:35 59.1 °F /  15.1 °C 46.1 °F /  7.8 °C 30.17 in /  1021.6 hPa WNW 1.2 mph /  1.9 km/h   62 % 0.00 in /  0 mm
12:37 59.2 °F /  15.1 °C 46.2 °F /  7.9 °C 30.17 in /  1021.6 hPa Calm     62 % 0.00 in /  0 mm
12:39 59.2 °F /  15.1 °C 46.2 °F /  7.9 °C 30.17 in /  1021.6 hPa Calm     62 % 0.00 in /  0 mm
12:42 59.3 °F /  15.2 °C 46.3 °F /  7.9 °C 30.17 in /  1021.6 hPa West 1.2 mph /  1.9 km/h 1.2 mph /  1.9 km/h 62 % 0.00 in /  0 mm
12:46 59.5 °F /  15.3 °C 46.5 °F /  8.1 °C 30.16 in /  1021.2 hPa WNW 1.2 mph /  1.9 km/h 1.2 mph /  1.9 km/h 62 % 0.00 in /  0 mm
12:49 59.5 °F /  15.3 °C 46.0 °F /  7.8 °C 30.16 in /  1021.2 hPa Calm     61 % 0.00 in /  0 mm
12:52 59.5 °F /  15.3 °C 46.5 °F /  8.1 °C 30.16 in /  1021.2 hPa Calm     62 % 0.00 in /  0 mm
12:57 59.7 °F /  15.4 °C 46.7 °F /  8.2 °C 30.16 in /  1021.2 hPa Calm     62 % 0.00 in /  0 mm
12:58 59.7 °F /  15.4 °C 46.2 °F /  7.9 °C 30.16 in /  1021.2 hPa WNW 1.2 mph /  1.9 km/h 1.2 mph /  1.9 km/h 61 % 0.00 in /  0 mm
13:00 59.8 °F /  15.4 °C 46.7 °F /  8.2 °C 30.16 in /  1021.2 hPa Calm   0.1 mph /  0.2 km/h 62 % 0.00 in /  0 mm
13:04 59.9 °F /  15.5 °C 46.4 °F /  8 °C 30.16 in /  1021.2 hPa West 1.2 mph /  1.9 km/h   61 % 0.00 in /  0 mm
13:07 60.0 °F /  15.6 °C 46.9 °F /  8.3 °C 30.16 in /  1021.2 hPa Calm     62 % 0.00 in /  0 mm
13:12 60.0 °F /  15.6 °C 46.5 °F /  8.1 °C 30.15 in /  1020.9 hPa Calm     61 % 0.00 in /  0 mm
13:17 60.1 °F /  15.6 °C 47.0 °F /  8.3 °C 30.15 in /  1020.9 hPa NW 1.2 mph /  1.9 km/h 1.2 mph /  1.9 km/h 62 % 0.00 in /  0 mm
13:22 60.3 °F /  15.7 °C 46.8 °F /  8.2 °C 30.15 in /  1020.9 hPa NW 1.2 mph /  1.9 km/h 1.2 mph /  1.9 km/h 61 % 0.00 in /  0 mm
13:27 60.4 °F /  15.8 °C 46.9 °F /  8.3 °C 30.15 in /  1020.9 hPa NW 1.2 mph /  1.9 km/h 1.2 mph /  1.9 km/h 61 % 0.00 in /  0 mm
13:30 60.5 °F /  15.8 °C 47.0 °F /  8.3 °C 30.15 in /  1020.9 hPa West 1.2 mph /  1.9 km/h 1.2 mph /  1.9 km/h 61 % 0.00 in /  0 mm
13:31 60.6 °F /  15.9 °C 47.5 °F /  8.6 °C 30.15 in /  1020.9 hPa West 1.2 mph /  1.9 km/h   62 % 0.00 in /  0 mm
13:36 60.9 °F /  16.1 °C 46.9 °F /  8.3 °C 30.15 in /  1020.9 hPa Calm     60 % 0.00 in /  0 mm
13:41 61.1 °F /  16.2 °C 47.1 °F /  8.4 °C 30.15 in /  1020.9 hPa Calm     60 % 0.00 in /  0 mm
13:46 61.3 °F /  16.3 °C 46.8 °F /  8.2 °C 30.15 in /  1020.9 hPa SW 2.0 mph /  3.2 km/h 2.0 mph /  3.2 km/h 59 % 0.00 in /  0 mm
13:47 61.4 °F /  16.3 °C 46.5 °F /  8.1 °C 30.15 in /  1020.9 hPa SW 2.3 mph /  3.7 km/h 2.3 mph /  3.7 km/h 58 % 0.00 in /  0 mm
13:50 61.4 °F /  16.3 °C 46.9 °F /  8.3 °C 30.15 in /  1020.9 hPa NW 1.2 mph /  1.9 km/h 1.2 mph /  1.9 km/h 59 % 0.00 in /  0 mm
13:54 61.5 °F /  16.4 °C 46.6 °F /  8.1 °C 30.14 in /  1020.5 hPa Calm     58 % 0.00 in /  0 mm
13:58 61.6 °F /  16.4 °C 46.7 °F /  8.2 °C 30.14 in /  1020.5 hPa WNW 1.2 mph /  1.9 km/h 1.2 mph /  1.9 km/h 58 % 0.00 in /  0 mm
14:06 62.0 °F /  16.7 °C 47.0 °F /  8.3 °C 30.14 in /  1020.5 hPa NW 1.2 mph /  1.9 km/h 1.2 mph /  1.9 km/h 58 % 0.00 in /  0 mm
14:09 62.2 °F /  16.8 °C 47.2 °F /  8.4 °C 30.14 in /  1020.5 hPa WNW 1.2 mph /  1.9 km/h 1.2 mph /  1.9 km/h 58 % 0.00 in /  0 mm
14:15 62.2 °F /  16.8 °C 46.8 °F /  8.2 °C 30.14 in /  1020.5 hPa WNW 1.2 mph /  1.9 km/h   57 % 0.00 in /  0 mm
14:16 62.2 °F /  16.8 °C 46.8 °F /  8.2 °C 30.14 in /  1020.5 hPa West 2.0 mph /  3.2 km/h 2.0 mph /  3.2 km/h 57 % 0.00 in /  0 mm
14:21 62.5 °F /  16.9 °C 46.6 °F /  8.1 °C 30.14 in /  1020.5 hPa WNW 1.2 mph /  1.9 km/h 1.2 mph /  1.9 km/h 56 % 0.00 in /  0 mm
14:28 62.5 °F /  16.9 °C 46.6 °F /  8.1 °C 30.14 in /  1020.5 hPa NW 2.3 mph /  3.7 km/h 2.3 mph /  3.7 km/h 56 % 0.00 in /  0 mm
14:29 62.5 °F /  16.9 °C 46.1 °F /  7.8 °C 30.14 in /  1020.5 hPa NW 2.3 mph /  3.7 km/h 2.3 mph /  3.7 km/h 55 % 0.00 in /  0 mm
14:34 62.4 °F /  16.9 °C 46.5 °F /  8.1 °C 30.14 in /  1020.5 hPa WNW 2.3 mph /  3.7 km/h 2.3 mph /  3.7 km/h 56 % 0.00 in /  0 mm
14:36 62.4 °F /  16.9 °C 46.5 °F /  8.1 °C 30.14 in /  1020.5 hPa NW 1.2 mph /  1.9 km/h 1.2 mph /  1.9 km/h 56 % 0.00 in /  0 mm
14:40 62.4 °F /  16.9 °C 46.5 °F /  8.1 °C 30.14 in /  1020.5 hPa NW 1.2 mph /  1.9 km/h 1.2 mph /  1.9 km/h 56 % 0.00 in /  0 mm
14:45 62.4 °F /  16.9 °C 46.5 °F /  8.1 °C 30.14 in /  1020.5 hPa NW 1.2 mph /  1.9 km/h 1.2 mph /  1.9 km/h 56 % 0.00 in /  0 mm
14:46 62.5 °F /  16.9 °C 46.6 °F /  8.1 °C 30.14 in /  1020.5 hPa NW 1.2 mph /  1.9 km/h 1.2 mph /  1.9 km/h 56 % 0.00 in /  0 mm
14:49 62.5 °F /  16.9 °C 46.6 °F /  8.1 °C 30.14 in /  1020.5 hPa West 1.2 mph /  1.9 km/h   56 % 0.00 in /  0 mm
14:52 62.6 °F /  17 °C 46.7 °F /  8.2 °C 30.14 in /  1020.5 hPa WNW 1.2 mph /  1.9 km/h 1.2 mph /  1.9 km/h 56 % 0.00 in /  0 mm
14:57 62.6 °F /  17 °C 46.2 °F /  7.9 °C 30.14 in /  1020.5 hPa NW 1.2 mph /  1.9 km/h 1.2 mph /  1.9 km/h 55 % 0.00 in /  0 mm
14:58 62.6 °F /  17 °C 46.2 °F /  7.9 °C 30.14 in /  1020.5 hPa NW 2.3 mph /  3.7 km/h 2.3 mph /  3.7 km/h 55 % 0.00 in /  0 mm
15:03 62.6 °F /  17 °C 46.2 °F /  7.9 °C 30.14 in /  1020.5 hPa WNW 2.3 mph /  3.7 km/h 2.3 mph /  3.7 km/h 55 % 0.00 in /  0 mm
15:09 62.5 °F /  16.9 °C 46.1 °F /  7.8 °C 30.15 in /  1020.9 hPa NW 1.2 mph /  1.9 km/h   55 % 0.00 in /  0 mm
15:10 62.5 °F /  16.9 °C 46.6 °F /  8.1 °C 30.15 in /  1020.9 hPa Calm     56 % 0.00 in /  0 mm
15:13 62.5 °F /  16.9 °C 46.1 °F /  7.8 °C 30.15 in /  1020.9 hPa Calm     55 % 0.00 in /  0 mm
15:15 62.5 °F /  16.9 °C 46.1 °F /  7.8 °C 30.15 in /  1020.9 hPa Calm     55 % 0.00 in /  0 mm
15:20 62.4 °F /  16.9 °C 46.5 °F /  8.1 °C 30.15 in /  1020.9 hPa NW 1.2 mph /  1.9 km/h   56 % 0.00 in /  0 mm
15:21 62.3 °F /  16.8 °C 45.9 °F /  7.7 °C 30.15 in /  1020.9 hPa NW 1.2 mph /  1.9 km/h   55 % 0.00 in /  0 mm
15:26 62.2 °F /  16.8 °C 46.3 °F /  7.9 °C 30.15 in /  1020.9 hPa NW 1.2 mph /  1.9 km/h 1.2 mph /  1.9 km/h 56 % 0.00 in /  0 mm
15:28 62.2 °F /  16.8 °C 46.3 °F /  7.9 °C 30.15 in /  1020.9 hPa NNW 2.0 mph /  3.2 km/h 2.0 mph /  3.2 km/h 56 % 0.00 in /  0 mm
15:33 62.1 °F /  16.7 °C 46.2 °F /  7.9 °C 30.15 in /  1020.9 hPa WNW 1.2 mph /  1.9 km/h 1.2 mph /  1.9 km/h 56 % 0.00 in /  0 mm
15:34 62.0 °F /  16.7 °C 46.1 °F /  7.8 °C 30.15 in /  1020.9 hPa NW 1.2 mph /  1.9 km/h 1.2 mph /  1.9 km/h 56 % 0.00 in /  0 mm
15:39 61.8 °F /  16.6 °C 46.4 °F /  8 °C 30.14 in /  1020.5 hPa NW 1.2 mph /  1.9 km/h 1.2 mph /  1.9 km/h 57 % 0.00 in /  0 mm
15:42 61.8 °F /  16.6 °C 46.4 °F /  8 °C 30.15 in /  1020.9 hPa NW 2.3 mph /  3.7 km/h 2.3 mph /  3.7 km/h 57 % 0.00 in /  0 mm
15:46 61.6 °F /  16.4 °C 47.1 °F /  8.4 °C 30.15 in /  1020.9 hPa NW 1.0 mph /  1.6 km/h 1.0 mph /  1.6 km/h 59 % 0.00 in /  0 mm
15:47 61.5 °F /  16.4 °C 47.0 °F /  8.3 °C 30.15 in /  1020.9 hPa WNW 1.2 mph /  1.9 km/h 1.2 mph /  1.9 km/h 59 % 0.00 in /  0 mm
15:51 61.3 °F /  16.3 °C 47.3 °F /  8.5 °C 30.15 in /  1020.9 hPa WNW 1.2 mph /  1.9 km/h 1.2 mph /  1.9 km/h 60 % 0.00 in /  0 mm
15:53 61.2 °F /  16.2 °C 47.2 °F /  8.4 °C 30.15 in /  1020.9 hPa NW 1.2 mph /  1.9 km/h 1.2 mph /  1.9 km/h 60 % 0.00 in /  0 mm
15:58 60.9 °F /  16.1 °C 46.9 °F /  8.3 °C 30.15 in /  1020.9 hPa WNW 1.2 mph /  1.9 km/h   60 % 0.00 in /  0 mm
16:04 60.6 °F /  15.9 °C 46.6 °F /  8.1 °C 30.15 in /  1020.9 hPa NW 1.2 mph /  1.9 km/h 1.2 mph /  1.9 km/h 60 % 0.00 in /  0 mm
16:09 60.4 °F /  15.8 °C 46.9 °F /  8.3 °C 30.15 in /  1020.9 hPa West 1.2 mph /  1.9 km/h 1.2 mph /  1.9 km/h 61 % 0.00 in /  0 mm
16:10 60.3 °F /  15.7 °C 46.8 °F /  8.2 °C 30.15 in /  1020.9 hPa NW 2.3 mph /  3.7 km/h 2.3 mph /  3.7 km/h 61 % 0.00 in /  0 mm
16:18 60.0 °F /  15.6 °C 46.9 °F /  8.3 °C 30.14 in /  1020.5 hPa Calm     62 % 0.00 in /  0 mm
16:23 59.7 °F /  15.4 °C 46.7 °F /  8.2 °C 30.14 in /  1020.5 hPa NW 1.0 mph /  1.6 km/h 1.0 mph /  1.6 km/h 62 % 0.00 in /  0 mm
16:25 59.6 °F /  15.3 °C 47.0 °F /  8.3 °C 30.14 in /  1020.5 hPa NW 1.2 mph /  1.9 km/h 1.2 mph /  1.9 km/h 63 % 0.00 in /  0 mm
16:26 59.6 °F /  15.3 °C 47.0 °F /  8.3 °C 30.14 in /  1020.5 hPa NW 1.2 mph /  1.9 km/h   63 % 0.00 in /  0 mm
16:31 59.5 °F /  15.3 °C 46.9 °F /  8.3 °C 30.15 in /  1020.9 hPa Calm     63 % 0.00 in /  0 mm
16:32 59.4 °F /  15.2 °C 46.8 °F /  8.2 °C 30.15 in /  1020.9 hPa Calm     63 % 0.00 in /  0 mm
16:37 59.2 °F /  15.1 °C 47.0 °F /  8.3 °C 30.14 in /  1020.5 hPa NW 1.2 mph /  1.9 km/h 1.2 mph /  1.9 km/h 64 % 0.00 in /  0 mm
16:42 58.9 °F /  14.9 °C 47.2 °F /  8.4 °C 30.14 in /  1020.5 hPa Calm     65 % 0.00 in /  0 mm
16:47 58.7 °F /  14.8 °C 47.0 °F /  8.3 °C 30.14 in /  1020.5 hPa Calm     65 % 0.00 in /  0 mm
16:48 58.7 °F /  14.8 °C 47.0 °F /  8.3 °C 30.13 in /  1020.2 hPa NW 1.2 mph /  1.9 km/h 1.2 mph /  1.9 km/h 65 % 0.00 in /  0 mm
16:53 58.5 °F /  14.7 °C 47.2 °F /  8.4 °C 30.14 in /  1020.5 hPa Calm     66 % 0.00 in /  0 mm
16:54 58.4 °F /  14.7 °C 47.1 °F /  8.4 °C 30.14 in /  1020.5 hPa NW 1.0 mph /  1.6 km/h   66 % 0.00 in /  0 mm
16:55 58.4 °F /  14.7 °C 47.1 °F /  8.4 °C 30.14 in /  1020.5 hPa NW 1.2 mph /  1.9 km/h 1.2 mph /  1.9 km/h 66 % 0.00 in /  0 mm
16:57 58.3 °F /  14.6 °C 47.0 °F /  8.3 °C 30.14 in /  1020.5 hPa Calm     66 % 0.00 in /  0 mm
17:00 58.1 °F /  14.5 °C 46.8 °F /  8.2 °C 30.14 in /  1020.5 hPa Calm     66 % 0.00 in /  0 mm
17:05 57.8 °F /  14.3 °C 46.9 °F /  8.3 °C 30.14 in /  1020.5 hPa Calm     67 % 0.00 in /  0 mm
17:10 57.6 °F /  14.2 °C 46.7 °F /  8.2 °C 30.14 in /  1020.5 hPa Calm     67 % 0.00 in /  0 mm
17:15 57.4 °F /  14.1 °C 46.9 °F /  8.3 °C 30.14 in /  1020.5 hPa Calm     68 % 0.00 in /  0 mm
17:16 57.4 °F /  14.1 °C 46.9 °F /  8.3 °C 30.14 in /  1020.5 hPa Calm     68 % 0.00 in /  0 mm
17:19 57.2 °F /  14 °C 46.7 °F /  8.2 °C 30.15 in /  1020.9 hPa Calm     68 % 0.00 in /  0 mm
17:23 56.9 °F /  13.8 °C 46.8 °F /  8.2 °C 30.15 in /  1020.9 hPa Calm     69 % 0.00 in /  0 mm
17:28 56.3 °F /  13.5 °C 46.6 °F /  8.1 °C 30.15 in /  1020.9 hPa Calm     70 % 0.00 in /  0 mm
17:29 56.2 °F /  13.4 °C 46.5 °F /  8.1 °C 30.15 in /  1020.9 hPa Calm     70 % 0.00 in /  0 mm
17:39 55.5 °F /  13.1 °C 46.6 °F /  8.1 °C 30.15 in /  1020.9 hPa Calm     72 % 0.00 in /  0 mm
17:44 55.6 °F /  13.1 °C 46.3 °F /  7.9 °C 30.15 in /  1020.9 hPa Calm     71 % 0.00 in /  0 mm
17:48 55.6 °F /  13.1 °C 46.3 °F /  7.9 °C 30.15 in /  1020.9 hPa Calm     71 % 0.00 in /  0 mm
17:52 55.7 °F /  13.2 °C 46.4 °F /  8 °C 30.15 in /  1020.9 hPa Calm     71 % 0.00 in /  0 mm
17:55 55.7 °F /  13.2 °C 46.4 °F /  8 °C 30.15 in /  1020.9 hPa Calm     71 % 0.00 in /  0 mm
18:00 55.6 °F /  13.1 °C 46.3 °F /  7.9 °C 30.15 in /  1020.9 hPa Calm     71 % 0.00 in /  0 mm
18:05 55.2 °F /  12.9 °C 46.3 °F /  7.9 °C 30.14 in /  1020.5 hPa Calm     72 % 0.00 in /  0 mm
18:06 55.2 °F /  12.9 °C 46.3 °F /  7.9 °C 30.14 in /  1020.5 hPa Calm     72 % 0.00 in /  0 mm
18:07 55.1 °F /  12.8 °C 46.2 °F /  7.9 °C 30.14 in /  1020.5 hPa Calm     72 % 0.00 in /  0 mm
18:11 54.8 °F /  12.7 °C 46.3 °F /  7.9 °C 30.14 in /  1020.5 hPa Calm     73 % 0.00 in /  0 mm
18:16 54.5 °F /  12.5 °C 46.4 °F /  8 °C 30.14 in /  1020.5 hPa Calm     74 % 0.00 in /  0 mm
18:17 54.5 °F /  12.5 °C 46.4 °F /  8 °C 30.14 in /  1020.5 hPa Calm     74 % 0.00 in /  0 mm
18:20 54.3 °F /  12.4 °C 46.2 °F /  7.9 °C 30.14 in /  1020.5 hPa Calm     74 % 0.00 in /  0 mm
18:22 54.2 °F /  12.3 °C 46.4 °F /  8 °C 30.14 in /  1020.5 hPa Calm     75 % 0.00 in /  0 mm
18:28 53.8 °F /  12.1 °C 46.1 °F /  7.8 °C 30.14 in /  1020.5 hPa Calm     75 % 0.00 in /  0 mm
18:33 53.7 °F /  12.1 °C 46.3 °F /  7.9 °C 30.14 in /  1020.5 hPa Calm     76 % 0.00 in /  0 mm
18:38 53.5 °F /  11.9 °C 46.1 °F /  7.8 °C 30.14 in /  1020.5 hPa Calm     76 % 0.00 in /  0 mm
18:39 53.5 °F /  11.9 °C 46.1 °F /  7.8 °C 30.14 in /  1020.5 hPa Calm     76 % 0.00 in /  0 mm
18:45 53.3 °F /  11.8 °C 46.3 °F /  7.9 °C 30.13 in /  1020.2 hPa Calm     77 % 0.00 in /  0 mm
18:46 53.3 °F /  11.8 °C 46.3 °F /  7.9 °C 30.14 in /  1020.5 hPa Calm     77 % 0.00 in /  0 mm
18:51 53.0 °F /  11.7 °C 46.0 °F /  7.8 °C 30.14 in /  1020.5 hPa Calm     77 % 0.00 in /  0 mm
18:53 52.9 °F /  11.6 °C 46.2 °F /  7.9 °C 30.14 in /  1020.5 hPa Calm     78 % 0.00 in /  0 mm
18:57 52.5 °F /  11.4 °C 45.8 °F /  7.7 °C 30.14 in /  1020.5 hPa Calm     78 % 0.00 in /  0 mm
18:59 52.3 °F /  11.3 °C 46.0 °F /  7.8 °C 30.14 in /  1020.5 hPa Calm     79 % 0.00 in /  0 mm
19:04 51.9 °F /  11.1 °C 45.9 °F /  7.7 °C 30.14 in /  1020.5 hPa Calm     80 % 0.00 in /  0 mm
19:08 51.6 °F /  10.9 °C 45.6 °F /  7.6 °C 30.14 in /  1020.5 hPa Calm     80 % 0.00 in /  0 mm
19:15 51.2 °F /  10.7 °C 45.6 °F /  7.6 °C 30.13 in /  1020.2 hPa Calm     81 % 0.00 in /  0 mm
19:20 51.0 °F /  10.6 °C 45.7 °F /  7.6 °C 30.13 in /  1020.2 hPa Calm     82 % 0.00 in /  0 mm
19:25 50.8 °F /  10.4 °C 45.5 °F /  7.5 °C 30.13 in /  1020.2 hPa Calm     82 % 0.00 in /  0 mm
19:30 50.6 °F /  10.3 °C 45.3 °F /  7.4 °C 30.13 in /  1020.2 hPa Calm     82 % 0.00 in /  0 mm
19:35 50.7 °F /  10.4 °C 45.4 °F /  7.4 °C 30.14 in /  1020.5 hPa Calm     82 % 0.00 in /  0 mm
19:40 50.4 °F /  10.2 °C 45.1 °F /  7.3 °C 30.14 in /  1020.5 hPa Calm     82 % 0.00 in /  0 mm
19:45 49.9 °F /  9.9 °C 44.9 °F /  7.2 °C 30.13 in /  1020.2 hPa Calm     83 % 0.00 in /  0 mm
19:49 49.6 °F /  9.8 °C 44.6 °F /  7 °C 30.14 in /  1020.5 hPa Calm     83 % 0.00 in /  0 mm
19:51 49.5 °F /  9.7 °C 44.6 °F /  7 °C 30.14 in /  1020.5 hPa Calm     83 % 0.00 in /  0 mm
19:56 49.2 °F /  9.6 °C 44.6 °F /  7 °C 30.14 in /  1020.5 hPa Calm     84 % 0.00 in /  0 mm
19:58 49.1 °F /  9.5 °C 44.5 °F /  6.9 °C 30.14 in /  1020.5 hPa Calm     84 % 0.00 in /  0 mm
20:03 48.8 °F /  9.3 °C 44.2 °F /  6.8 °C 30.14 in /  1020.5 hPa Calm     84 % 0.00 in /  0 mm
20:07 48.5 °F /  9.2 °C 43.9 °F /  6.6 °C 30.14 in /  1020.5 hPa Calm     84 % 0.00 in /  0 mm
20:12 48.3 °F /  9.1 °C 44.0 °F /  6.7 °C 30.14 in /  1020.5 hPa Calm     85 % 0.00 in /  0 mm
20:15 48.2 °F /  9 °C 43.9 °F /  6.6 °C 30.14 in /  1020.5 hPa Calm     85 % 0.00 in /  0 mm
20:20 48.2 °F /  9 °C 44.2 °F /  6.8 °C 30.14 in /  1020.5 hPa Calm     86 % 0.00 in /  0 mm
20:22 48.3 °F /  9.1 °C 44.0 °F /  6.7 °C 30.14 in /  1020.5 hPa NE 1.2 mph /  1.9 km/h   85 % 0.00 in /  0 mm
20:27 48.4 °F /  9.1 °C 44.1 °F /  6.7 °C 30.15 in /  1020.9 hPa Calm     85 % 0.00 in /  0 mm
20:32 48.4 °F /  9.1 °C 44.1 °F /  6.7 °C 30.15 in /  1020.9 hPa Calm     85 % 0.00 in /  0 mm
20:37 48.3 °F /  9.1 °C 44.0 °F /  6.7 °C 30.15 in /  1020.9 hPa Calm     85 % 0.00 in /  0 mm
20:41 48.3 °F /  9.1 °C 44.0 °F /  6.7 °C 30.15 in /  1020.9 hPa Calm     85 % 0.00 in /  0 mm
20:46 48.2 °F /  9 °C 44.2 °F /  6.8 °C 30.14 in /  1020.5 hPa NE 1.0 mph /  1.6 km/h 1.0 mph /  1.6 km/h 86 % 0.00 in /  0 mm
20:48 48.3 °F /  9.1 °C 44.3 °F /  6.8 °C 30.14 in /  1020.5 hPa NE 1.2 mph /  1.9 km/h   86 % 0.00 in /  0 mm
20:53 48.5 °F /  9.2 °C 44.5 °F /  6.9 °C 30.15 in /  1020.9 hPa Calm     86 % 0.00 in /  0 mm
20:54 48.5 °F /  9.2 °C 44.2 °F /  6.8 °C 30.15 in /  1020.9 hPa NE 1.0 mph /  1.6 km/h   85 % 0.00 in /  0 mm
20:59 48.5 °F /  9.2 °C 44.2 °F /  6.8 °C 30.14 in /  1020.5 hPa NE 1.2 mph /  1.9 km/h 1.2 mph /  1.9 km/h 85 % 0.00 in /  0 mm
21:04 48.4 °F /  9.1 °C 44.1 °F /  6.7 °C 30.14 in /  1020.5 hPa Calm     85 % 0.00 in /  0 mm
21:05 48.4 °F /  9.1 °C 44.4 °F /  6.9 °C 30.14 in /  1020.5 hPa NE 1.2 mph /  1.9 km/h   86 % 0.00 in /  0 mm
21:10 48.4 °F /  9.1 °C 44.1 °F /  6.7 °C 30.14 in /  1020.5 hPa Calm     85 % 0.00 in /  0 mm
21:15 47.9 °F /  8.8 °C 43.6 °F /  6.4 °C 30.15 in /  1020.9 hPa Calm     85 % 0.00 in /  0 mm
21:16 47.7 °F /  8.7 °C 43.4 °F /  6.3 °C 30.15 in /  1020.9 hPa Calm     85 % 0.00 in /  0 mm
21:21 47.2 °F /  8.4 °C 43.2 °F /  6.2 °C 30.14 in /  1020.5 hPa Calm     86 % 0.00 in /  0 mm
21:25 47.0 °F /  8.3 °C 43.3 °F /  6.3 °C 30.15 in /  1020.9 hPa Calm     87 % 0.00 in /  0 mm
21:29 46.8 °F /  8.2 °C 43.1 °F /  6.2 °C 30.15 in /  1020.9 hPa Calm     87 % 0.00 in /  0 mm
21:34 46.4 °F /  8 °C 42.7 °F /  5.9 °C 30.16 in /  1021.2 hPa Calm     87 % 0.00 in /  0 mm
21:36 46.3 °F /  7.9 °C 42.9 °F /  6.1 °C 30.16 in /  1021.2 hPa Calm     88 % 0.00 in /  0 mm
21:41 45.9 °F /  7.7 °C 42.5 °F /  5.8 °C 30.16 in /  1021.2 hPa Calm     88 % 0.00 in /  0 mm
21:42 45.8 °F /  7.7 °C 42.4 °F /  5.8 °C 30.16 in /  1021.2 hPa Calm     88 % 0.00 in /  0 mm
21:47 45.6 °F /  7.6 °C 42.5 °F /  5.8 °C 30.16 in /  1021.2 hPa Calm     89 % 0.00 in /  0 mm
21:53 45.3 °F /  7.4 °C 42.5 °F /  5.8 °C 30.17 in /  1021.6 hPa Calm     90 % 0.00 in /  0 mm
21:58 45.0 °F /  7.2 °C 42.2 °F /  5.7 °C 30.17 in /  1021.6 hPa Calm     90 % 0.00 in /  0 mm
22:01 44.9 °F /  7.2 °C 42.1 °F /  5.6 °C 30.17 in /  1021.6 hPa Calm     90 % 0.00 in /  0 mm
22:06 44.7 °F /  7.1 °C 41.9 °F /  5.5 °C 30.17 in /  1021.6 hPa Calm     90 % 0.00 in /  0 mm
22:07 44.6 °F /  7 °C 42.1 °F /  5.6 °C 30.17 in /  1021.6 hPa Calm     91 % 0.00 in /  0 mm
22:12 44.6 °F /  7 °C 42.1 °F /  5.6 °C 30.17 in /  1021.6 hPa Calm     91 % 0.00 in /  0 mm
22:13 44.6 °F /  7 °C 42.1 °F /  5.6 °C 30.17 in /  1021.6 hPa Calm     91 % 0.00 in /  0 mm
22:18 44.6 °F /  7 °C 42.4 °F /  5.8 °C 30.17 in /  1021.6 hPa Calm     92 % 0.00 in /  0 mm
22:19 44.5 °F /  6.9 °C 42.3 °F /  5.7 °C 30.17 in /  1021.6 hPa Calm     92 % 0.00 in /  0 mm
22:24 44.3 °F /  6.8 °C 41.8 °F /  5.4 °C 30.17 in /  1021.6 hPa Calm     91 % 0.00 in /  0 mm
22:25 44.3 °F /  6.8 °C 41.8 °F /  5.4 °C 30.17 in /  1021.6 hPa Calm     91 % 0.00 in /  0 mm
22:28 44.3 °F /  6.8 °C 42.1 °F /  5.6 °C 30.17 in /  1021.6 hPa Calm     92 % 0.00 in /  0 mm
22:32 44.3 °F /  6.8 °C 42.1 °F /  5.6 °C 30.17 in /  1021.6 hPa Calm     92 % 0.00 in /  0 mm
22:37 44.3 °F /  6.8 °C 42.1 °F /  5.6 °C 30.17 in /  1021.6 hPa Calm     92 % 0.00 in /  0 mm
22:38 44.3 °F /  6.8 °C 42.1 °F /  5.6 °C 30.17 in /  1021.6 hPa Calm     92 % 0.00 in /  0 mm
22:39 44.2 °F /  6.8 °C 42.0 °F /  5.6 °C 30.17 in /  1021.6 hPa Calm     92 % 0.00 in /  0 mm
22:44 44.1 °F /  6.7 °C 41.9 °F /  5.5 °C 30.17 in /  1021.6 hPa Calm     92 % 0.00 in /  0 mm
22:49 44.0 °F /  6.7 °C 41.8 °F /  5.4 °C 30.17 in /  1021.6 hPa Calm     92 % 0.00 in /  0 mm
22:50 44.0 °F /  6.7 °C 41.8 °F /  5.4 °C 30.17 in /  1021.6 hPa Calm     92 % 0.00 in /  0 mm
22:55 43.8 °F /  6.6 °C 41.6 °F /  5.3 °C 30.17 in /  1021.6 hPa Calm     92 % 0.00 in /  0 mm
22:57 43.8 °F /  6.6 °C 41.6 °F /  5.3 °C 30.17 in /  1021.6 hPa Calm     92 % 0.00 in /  0 mm
23:03 43.9 °F /  6.6 °C 41.7 °F /  5.4 °C 30.17 in /  1021.6 hPa Calm     92 % 0.00 in /  0 mm
23:08 43.9 °F /  6.6 °C 41.7 °F /  5.4 °C 30.17 in /  1021.6 hPa Calm     92 % 0.00 in /  0 mm
23:09 43.9 °F /  6.6 °C 41.7 °F /  5.4 °C 30.17 in /  1021.6 hPa Calm     92 % 0.00 in /  0 mm
23:10 43.9 °F /  6.6 °C 41.7 °F /  5.4 °C 30.17 in /  1021.6 hPa Calm     92 % 0.00 in /  0 mm
23:14 44.1 °F /  6.7 °C 42.2 °F /  5.7 °C 30.17 in /  1021.6 hPa Calm     93 % 0.00 in /  0 mm
23:19 44.7 °F /  7.1 °C 42.8 °F /  6 °C 30.17 in /  1021.6 hPa NE 1.2 mph /  1.9 km/h   93 % 0.00 in /  0 mm
23:23 44.9 °F /  7.2 °C 42.7 °F /  5.9 °C 30.17 in /  1021.6 hPa North 1.2 mph /  1.9 km/h 1.2 mph /  1.9 km/h 92 % 0.00 in /  0 mm
23:28 45.1 °F /  7.3 °C 42.6 °F /  5.9 °C 30.17 in /  1021.6 hPa WNW 1.2 mph /  1.9 km/h   91 % 0.00 in /  0 mm
23:30 45.1 °F /  7.3 °C 42.6 °F /  5.9 °C 30.17 in /  1021.6 hPa Calm     91 % 0.00 in /  0 mm
23:35 45.2 °F /  7.3 °C 42.4 °F /  5.8 °C 30.17 in /  1021.6 hPa Calm     90 % 0.00 in /  0 mm
23:38 45.3 °F /  7.4 °C 42.5 °F /  5.8 °C 30.17 in /  1021.6 hPa Calm     90 % 0.00 in /  0 mm
23:39 45.3 °F /  7.4 °C 42.5 °F /  5.8 °C 30.17 in /  1021.6 hPa Calm     90 % 0.00 in /  0 mm
23:43 45.4 °F /  7.4 °C 42.6 °F /  5.9 °C 30.16 in /  1021.2 hPa Calm     90 % 0.00 in /  0 mm
23:49 45.5 °F /  7.5 °C 42.7 °F /  5.9 °C 30.16 in /  1021.2 hPa Calm     90 % 0.00 in /  0 mm
23:54 45.5 °F /  7.5 °C 42.7 °F /  5.9 °C 30.16 in /  1021.2 hPa Calm     90 % 0.00 in /  0 mm
23:59 45.6 °F /  7.6 °C 42.8 °F /  6 °C 30.15 in /  1020.9 hPa Calm     90 % 0.00 in /  0 mm
Park Place, Exeter, Tulare County, California, USA
Compliments of Weather Underground - 3.25 mb